Terminal Aerodrome Forecast
Issued by NWS

Current Version | Previous Version | Graphics & Text | Print | Product List | Glossary On
Versions: 1 2 3 4 5 6 7 8 9 10 11 12 13 14 15 16 17 18 19 20 21 22 23 24 25 26 27 28 29 30 31 32 33 34 35 36 37 38 39 40 41 42 43 44 45 46 47
000
FTUS41 KRNK 231725
TAFLWB
TAF
KLWB 231725Z 2318/2418 22005KT P6SM BKN050
     FM240200 00000KT P6SM SCT130
     FM240500 00000KT 5SM BR BKN008
     FM241300 00000KT 5SM BR SCT003
     FM241400 VRB03KT P6SM SCT250=

USA.gov is the U.S. government's official web portal to all federal, state and local government web resources and services.